createdAt,value
2018-07-13T00:01:50.534Z,5.60
2018-07-13T00:06:54.190Z,10.40
2018-07-13T00:11:57.790Z,5.37
2018-07-13T00:17:01.316Z,5.77
2018-07-13T00:22:04.836Z,6.40
2018-07-13T00:27:08.420Z,6.90
2018-07-13T00:32:11.923Z,6.23
2018-07-13T00:37:15.532Z,6.83
2018-07-13T00:42:19.055Z,6.53
2018-07-13T00:47:22.660Z,5.60
2018-07-13T00:52:26.161Z,5.80
2018-07-13T00:57:29.704Z,5.83
2018-07-13T01:02:33.211Z,7.03
2018-07-13T01:07:36.754Z,6.20
2018-07-13T01:12:40.330Z,8.57
2018-07-13T01:17:43.860Z,5.77
2018-07-13T01:22:47.371Z,7.13
2018-07-13T01:27:50.886Z,6.07
2018-07-13T01:32:54.424Z,5.60
2018-07-13T01:37:58.270Z,8.07
2018-07-13T01:43:01.800Z,7.40
2018-07-13T01:48:05.384Z,7.63
2018-07-13T01:53:08.939Z,8.40
2018-07-13T01:58:12.471Z,7.97
2018-07-13T02:03:15.980Z,8.83
2018-07-13T02:08:19.510Z,6.13
2018-07-13T02:13:23.147Z,5.93
2018-07-13T02:18:26.680Z,7.60
2018-07-13T02:23:30.550Z,8.23
2018-07-13T02:28:34.080Z,6.67
2018-07-13T02:33:37.620Z,6.67
2018-07-13T02:38:41.145Z,7.27
2018-07-13T02:43:44.714Z,7.77
2018-07-13T02:48:48.357Z,6.20
2018-07-13T02:53:52.749Z,6.50
2018-07-13T02:58:56.265Z,7.00
2018-07-13T03:03:59.875Z,8.27
2018-07-13T03:09:04.566Z,9.43
2018-07-13T03:14:08.512Z,7.67
2018-07-13T03:19:12.024Z,7.90
2018-07-13T03:24:15.556Z,9.50
2018-07-13T03:29:19.065Z,7.57
2018-07-13T03:34:22.650Z,6.90
2018-07-13T03:39:26.287Z,7.30
2018-07-13T03:44:29.934Z,6.60
2018-07-13T03:49:34.131Z,8.10
2018-07-13T03:54:37.738Z,10.83
2018-07-13T03:59:42.299Z,10.93
2018-07-13T04:04:46.004Z,10.80
2018-07-13T04:09:49.912Z,7.67
2018-07-13T04:14:53.575Z,9.70
2018-07-13T04:19:57.146Z,8.37
2018-07-13T04:25:00.760Z,8.43
2018-07-13T04:30:04.856Z,9.50
2018-07-13T04:35:08.451Z,8.63
2018-07-13T04:40:11.956Z,7.73
2018-07-13T04:45:15.171Z,9.50
2018-07-13T04:50:18.933Z,10.10
2018-07-13T04:55:22.519Z,11.90
2018-07-13T05:00:26.143Z,10.97
2018-07-13T05:05:29.744Z,8.53
2018-07-13T05:10:33.637Z,10.13
2018-07-13T05:15:37.231Z,10.67
2018-07-13T05:20:40.855Z,8.30
2018-07-13T05:25:44.546Z,9.50
2018-07-13T05:30:49.125Z,18.30
2018-07-13T05:35:56.195Z,9.00
2018-07-13T05:40:59.836Z,13.70
2018-07-13T05:46:03.452Z,14.07
2018-07-13T05:51:07.450Z,12.60
2018-07-13T05:56:11.079Z,14.27
2018-07-13T06:01:14.728Z,14.27
2018-07-13T06:06:18.403Z,12.87
2018-07-13T06:11:22.084Z,12.90
2018-07-13T06:16:25.595Z,16.00
2018-07-13T06:21:29.145Z,11.83
2018-07-13T06:26:32.891Z,13.23
2018-07-13T06:31:36.715Z,10.50
2018-07-13T06:36:40.339Z,11.17
2018-07-13T06:41:43.982Z,10.20
2018-07-13T06:46:48.760Z,12.43
2018-07-13T06:51:52.354Z,12.03
2018-07-13T06:56:55.933Z,11.67
2018-07-13T07:02:00.269Z,12.80
2018-07-13T07:07:16.996Z,13.70
2018-07-13T07:12:58.939Z,13.03
2018-07-13T07:18:02.521Z,14.67
2018-07-13T07:23:06.129Z,14.40
2018-07-13T07:28:09.714Z,13.03
2018-07-13T07:33:13.274Z,15.90
2018-07-13T07:38:16.828Z,13.10
2018-07-13T07:43:21.094Z,13.17
2018-07-13T07:48:24.639Z,15.30
2018-07-13T07:53:28.201Z,10.70
2018-07-13T07:58:31.711Z,11.77
2018-07-13T08:03:35.291Z,10.73
2018-07-13T08:08:38.853Z,10.40
2018-07-13T08:13:42.423Z,10.97
2018-07-13T08:18:50.789Z,9.97
2018-07-13T08:23:54.038Z,9.03
2018-07-13T08:28:57.666Z,12.00
2018-07-13T08:34:01.355Z,10.87
2018-07-13T08:39:06.923Z,9.27
2018-07-13T08:44:10.527Z,11.27
2018-07-13T08:49:14.150Z,16.10
2018-07-13T08:54:17.794Z,15.13
2018-07-13T08:59:21.698Z,13.00
2018-07-13T09:04:25.340Z,11.60
2018-07-13T09:09:28.867Z,8.93
2018-07-13T09:14:33.529Z,7.13
2018-07-13T09:19:37.276Z,9.73
2018-07-13T09:24:40.883Z,10.37
2018-07-13T09:29:44.430Z,9.37
2018-07-13T09:34:48.036Z,7.97
2018-07-13T09:39:51.824Z,6.50
2018-07-13T09:44:55.026Z,11.07
2018-07-13T09:49:58.941Z,7.63
2018-07-13T09:55:06.725Z,7.30
2018-07-13T10:00:11.659Z,7.30
2018-07-13T10:05:15.515Z,10.17
2018-07-13T10:10:19.763Z,7.20
2018-07-13T10:15:23.383Z,5.17
2018-07-13T10:20:27.370Z,8.40
2018-07-13T10:25:31.543Z,4.80
2018-07-13T10:30:37.483Z,5.83
2018-07-13T10:35:41.860Z,6.50
2018-07-13T10:40:45.408Z,5.40
2018-07-13T10:45:49.516Z,4.77
2018-07-13T10:50:53.300Z,5.13
2018-07-13T10:56:00.383Z,4.13
2018-07-13T11:01:03.916Z,6.50
2018-07-13T11:06:09.510Z,4.00
2018-07-13T11:11:13.315Z,11.93
2018-07-13T11:16:16.819Z,4.33
2018-07-13T11:21:20.818Z,6.30
2018-07-13T11:26:26.796Z,5.70
2018-07-13T11:31:30.368Z,5.30
2018-07-13T11:36:34.403Z,3.87
2018-07-13T11:41:37.962Z,4.17
2018-07-13T11:46:41.864Z,5.50
2018-07-13T11:51:45.373Z,4.37
2018-07-13T11:56:49.320Z,6.23
2018-07-13T12:01:55.105Z,5.80
2018-07-13T12:06:58.837Z,4.17
2018-07-13T12:12:03.647Z,3.43
2018-07-13T12:17:07.636Z,4.17
2018-07-13T12:22:11.664Z,3.60
2018-07-13T12:27:15.685Z,4.70
2018-07-13T12:32:19.335Z,4.47
2018-07-13T12:37:22.991Z,4.43
2018-07-13T12:42:27.836Z,6.20
2018-07-13T12:47:31.861Z,5.67
2018-07-13T12:52:35.403Z,4.03
2018-07-13T12:57:38.949Z,6.90
2018-07-13T13:02:43.380Z,2.90
2018-07-13T13:07:47.079Z,3.83
2018-07-13T13:12:51.594Z,4.70
2018-07-13T13:17:55.518Z,4.40
2018-07-13T13:23:06.023Z,3.53
2018-07-13T13:28:10.051Z,3.00
2018-07-13T13:33:13.631Z,4.53
2018-07-13T13:38:17.598Z,3.57
2018-07-13T13:43:21.165Z,3.70
2018-07-13T13:48:24.761Z,3.33
2018-07-13T13:53:29.344Z,3.27
2018-07-13T13:58:34.648Z,3.03
2018-07-13T14:03:38.607Z,6.17
2018-07-13T14:08:42.678Z,5.97
2018-07-13T14:13:46.461Z,4.20
2018-07-13T14:18:50.040Z,7.40
2018-07-13T14:23:53.601Z,5.00
2018-07-13T14:28:57.427Z,6.63
2018-07-13T14:34:00.983Z,3.30
2018-07-13T14:39:05.416Z,4.10
2018-07-13T14:44:09.784Z,4.07
2018-07-13T14:49:13.329Z,2.87
2018-07-13T14:54:16.880Z,3.93
2018-07-13T14:59:20.812Z,7.40
2018-07-13T15:04:24.438Z,3.67
2018-07-13T15:09:27.995Z,5.07
2018-07-13T15:14:31.807Z,10.10
2018-07-13T15:19:35.827Z,3.80
2018-07-13T15:24:40.431Z,8.77
2018-07-13T15:29:47.767Z,7.63
2018-07-13T15:34:51.392Z,2.70
2018-07-13T15:39:54.997Z,4.90
2018-07-13T15:45:01.560Z,6.57
2018-07-13T15:50:06.310Z,3.73
2018-07-13T15:55:10.610Z,3.27
2018-07-13T16:00:14.164Z,6.60
2018-07-13T16:05:17.825Z,2.80
2018-07-13T16:10:24.416Z,5.17
2018-07-13T16:15:28.210Z,4.03
2018-07-13T16:20:33.193Z,2.37
2018-07-13T16:25:36.770Z,2.70
2018-07-13T16:30:41.872Z,4.77
2018-07-13T16:35:47.620Z,5.70
2018-07-13T16:40:51.163Z,3.83
2018-07-13T16:45:54.716Z,4.27
2018-07-13T16:50:58.625Z,4.63
2018-07-13T16:56:02.122Z,12.03
2018-07-13T17:01:06.064Z,5.20
2018-07-13T17:06:10.099Z,11.17
2018-07-13T17:11:14.139Z,7.20
2018-07-13T17:16:17.660Z,10.17
2018-07-13T17:21:24.838Z,5.90
2018-07-13T17:26:28.445Z,4.40
2018-07-13T17:31:32.083Z,7.97
2018-07-13T17:36:35.947Z,8.43
2018-07-13T17:41:39.540Z,5.53
2018-07-13T17:46:43.323Z,3.10
2018-07-13T17:51:47.155Z,8.93
2018-07-13T17:56:50.737Z,6.40
2018-07-13T18:01:54.578Z,6.00
2018-07-13T18:06:58.600Z,6.93
2018-07-13T18:12:02.331Z,3.97
2018-07-13T18:17:05.944Z,4.10
2018-07-13T18:22:09.530Z,4.50
2018-07-13T18:27:13.518Z,5.13
2018-07-13T18:32:17.791Z,5.33
2018-07-13T18:37:21.364Z,9.40
2018-07-13T18:42:25.226Z,5.83
2018-07-13T18:47:47.283Z,4.03
2018-07-13T18:52:51.115Z,8.53
2018-07-13T18:57:54.723Z,4.30
2018-07-13T19:03:00.218Z,7.70
2018-07-13T19:08:03.970Z,4.57
2018-07-13T19:13:07.755Z,5.10
2018-07-13T19:18:11.949Z,4.40
2018-07-13T19:23:15.643Z,4.30
2018-07-13T19:28:19.234Z,7.00
2018-07-13T19:33:23.221Z,10.00
2018-07-13T19:38:26.759Z,19.20
2018-07-13T19:43:30.708Z,10.40
2018-07-13T19:48:34.390Z,7.77
2018-07-13T19:53:38.472Z,6.10
2018-07-13T19:58:41.985Z,8.23
2018-07-13T20:03:46.414Z,5.30
2018-07-13T20:08:50.353Z,6.60
2018-07-13T20:13:54.165Z,9.93
2018-07-13T20:18:58.027Z,6.17
2018-07-13T20:24:02.721Z,7.30
2018-07-13T20:29:06.263Z,7.33
2018-07-13T20:34:11.522Z,7.00
2018-07-13T20:39:15.659Z,6.43
2018-07-13T20:44:19.224Z,7.13
2018-07-13T20:49:22.759Z,8.37
2018-07-13T20:54:26.499Z,7.87
2018-07-13T20:59:30.056Z,6.90
2018-07-13T21:04:34.271Z,10.30
2018-07-13T21:09:38.351Z,6.53
2018-07-13T21:14:42.023Z,6.97
2018-07-13T21:19:45.913Z,6.27
2018-07-13T21:24:49.619Z,8.90
2018-07-13T21:29:53.677Z,6.30
2018-07-13T21:34:57.404Z,8.23
2018-07-13T21:40:00.930Z,9.73
2018-07-13T21:45:05.486Z,9.30
2018-07-13T21:50:09.031Z,7.03
2018-07-13T21:55:12.547Z,10.33
2018-07-13T22:00:17.440Z,12.03
2018-07-13T22:05:26.250Z,8.83
2018-07-13T22:10:30.907Z,6.30
2018-07-13T22:15:34.428Z,5.73
2018-07-13T22:20:37.970Z,5.90
2018-07-13T22:25:42.382Z,7.20
2018-07-13T22:30:45.894Z,6.90
2018-07-13T22:35:49.230Z,10.20
2018-07-13T22:40:52.739Z,7.23
2018-07-13T22:45:56.672Z,6.27
2018-07-13T22:51:00.295Z,12.67
2018-07-13T22:56:04.366Z,8.53
2018-07-13T23:01:09.773Z,6.30
2018-07-13T23:06:15.207Z,5.07
2018-07-13T23:11:18.923Z,5.63
2018-07-13T23:16:22.866Z,7.73
2018-07-13T23:21:27.064Z,7.13
2018-07-13T23:26:30.636Z,5.50
2018-07-13T23:31:34.802Z,6.37
2018-07-13T23:36:38.709Z,5.80
2018-07-13T23:41:42.236Z,13.67
2018-07-13T23:46:46.412Z,8.20
2018-07-13T23:51:49.967Z,7.20
2018-07-13T23:56:53.547Z,6.80
